createdAt,value
2022-08-31T00:00:28.945Z,21.75
2022-08-31T00:01:28.919Z,21.77
2022-08-31T00:02:28.963Z,21.75
2022-08-31T00:03:28.897Z,21.74
2022-08-31T00:04:28.909Z,21.73
2022-08-31T00:05:28.857Z,21.70
2022-08-31T00:06:28.853Z,21.64
2022-08-31T00:07:28.825Z,21.59
2022-08-31T00:08:28.844Z,21.55
2022-08-31T00:09:28.818Z,21.52
2022-08-31T00:10:32.326Z,21.45
2022-08-31T00:11:28.787Z,21.38
2022-08-31T00:12:28.807Z,21.34
2022-08-31T00:13:28.761Z,21.28
2022-08-31T00:14:28.743Z,21.27
2022-08-31T00:15:28.744Z,21.24
2022-08-31T00:16:28.788Z,21.19
2022-08-31T00:17:28.718Z,21.19
2022-08-31T00:18:28.704Z,21.15
2022-08-31T00:19:28.665Z,21.13
2022-08-31T00:20:33.839Z,21.08
2022-08-31T00:21:29.657Z,21.05
2022-08-31T00:22:28.648Z,21.01
2022-08-31T00:23:28.621Z,20.97
2022-08-31T00:24:28.628Z,20.97
2022-08-31T00:25:28.584Z,20.96
2022-08-31T00:26:28.587Z,20.94
2022-08-31T00:27:28.584Z,20.96
2022-08-31T00:28:28.559Z,20.93
2022-08-31T00:29:28.560Z,20.90
2022-08-31T00:30:28.534Z,20.85
2022-08-31T00:31:28.563Z,20.81
2022-08-31T00:32:28.913Z,20.78
2022-08-31T00:33:28.493Z,20.73
2022-08-31T00:34:28.466Z,20.69
2022-08-31T00:35:28.478Z,20.66
2022-08-31T00:36:28.462Z,20.61
2022-08-31T00:37:28.443Z,20.58
2022-08-31T00:38:28.431Z,20.56
2022-08-31T00:39:28.412Z,20.53
2022-08-31T00:40:28.459Z,20.50
2022-08-31T00:41:28.384Z,20.51
2022-08-31T00:42:28.398Z,20.46
2022-08-31T00:43:28.371Z,20.41
2022-08-31T00:44:28.366Z,20.40
2022-08-31T00:45:28.387Z,20.40
2022-08-31T00:46:28.327Z,20.38
2022-08-31T00:47:28.303Z,20.38
2022-08-31T00:48:28.329Z,20.37
2022-08-31T00:49:28.298Z,20.37
2022-08-31T00:50:28.270Z,20.35
2022-08-31T00:51:28.260Z,20.35
2022-08-31T00:52:28.247Z,20.34
2022-08-31T00:53:29.248Z,20.31
2022-08-31T00:54:28.213Z,20.31
2022-08-31T00:55:28.216Z,20.31
2022-08-31T00:56:28.205Z,20.33
2022-08-31T00:57:34.338Z,20.33
2022-08-31T00:58:29.164Z,20.30
2022-08-31T00:59:28.181Z,20.31
2022-08-31T01:00:28.147Z,20.35
2022-08-31T01:01:28.246Z,20.37
2022-08-31T01:02:28.198Z,20.33
2022-08-31T01:03:28.093Z,20.30
2022-08-31T01:04:28.097Z,20.20
2022-08-31T01:05:28.107Z,20.16
2022-08-31T01:06:28.067Z,20.07
2022-08-31T01:07:28.068Z,20.00
2022-08-31T01:08:30.587Z,20.00
2022-08-31T01:09:28.037Z,19.98
2022-08-31T01:10:28.018Z,19.97
2022-08-31T01:11:29.047Z,19.95
2022-08-31T01:12:27.994Z,19.94
2022-08-31T01:13:27.993Z,19.85
2022-08-31T01:14:27.956Z,19.83
2022-08-31T01:15:27.958Z,19.78
2022-08-31T01:16:27.951Z,19.76
2022-08-31T01:17:27.937Z,19.76
2022-08-31T01:18:27.926Z,19.72
2022-08-31T01:19:27.922Z,19.70
2022-08-31T01:20:27.878Z,19.62
2022-08-31T01:21:27.871Z,19.60
2022-08-31T01:22:27.866Z,19.55
2022-08-31T01:23:27.831Z,19.50
2022-08-31T01:24:27.843Z,19.49
2022-08-31T01:25:33.748Z,19.50
2022-08-31T01:26:28.793Z,19.52
2022-08-31T01:27:27.782Z,19.47
2022-08-31T01:28:27.770Z,19.50
2022-08-31T01:29:27.784Z,19.46
2022-08-31T01:30:27.754Z,19.43
2022-08-31T01:31:27.770Z,19.45
2022-08-31T01:32:27.725Z,19.43
2022-08-31T01:33:27.721Z,19.42
2022-08-31T01:34:27.713Z,19.42
2022-08-31T01:35:27.694Z,19.42
2022-08-31T01:36:27.669Z,19.38
2022-08-31T01:37:29.503Z,19.35
2022-08-31T01:38:27.657Z,19.32
2022-08-31T01:39:27.642Z,19.28
2022-08-31T01:40:27.697Z,19.27
2022-08-31T01:41:27.626Z,19.25
2022-08-31T01:42:33.417Z,19.28
2022-08-31T01:43:28.595Z,19.28
2022-08-31T01:44:27.579Z,19.28
2022-08-31T01:45:27.562Z,19.25
2022-08-31T01:46:27.599Z,19.27
2022-08-31T01:47:27.539Z,19.30
2022-08-31T01:48:27.511Z,19.28
2022-08-31T01:49:27.565Z,19.28
2022-08-31T01:50:27.516Z,19.31
2022-08-31T01:51:27.490Z,19.28
2022-08-31T01:52:27.832Z,19.30
2022-08-31T01:53:27.460Z,19.30
2022-08-31T01:54:27.441Z,19.31
2022-08-31T01:55:27.555Z,19.34
2022-08-31T01:56:27.436Z,19.30
2022-08-31T01:57:33.505Z,19.28
2022-08-31T01:58:28.388Z,19.21
2022-08-31T01:59:27.385Z,19.20
2022-08-31T02:00:27.394Z,19.20
2022-08-31T02:01:33.877Z,19.21
2022-08-31T02:02:28.413Z,19.21
2022-08-31T02:03:27.357Z,19.09
2022-08-31T02:04:27.310Z,18.99
2022-08-31T02:05:27.330Z,18.97
2022-08-31T02:06:27.294Z,18.97
2022-08-31T02:07:27.285Z,19.05
2022-08-31T02:08:27.296Z,19.05
2022-08-31T02:09:27.271Z,19.07
2022-08-31T02:10:27.252Z,19.09
2022-08-31T02:11:27.244Z,19.09
2022-08-31T02:12:27.223Z,19.12
2022-08-31T02:13:27.211Z,19.02
2022-08-31T02:14:27.202Z,19.02
2022-08-31T02:15:27.205Z,19.06
2022-08-31T02:16:27.206Z,19.06
2022-08-31T02:17:27.161Z,19.07
2022-08-31T02:18:27.140Z,19.06
2022-08-31T02:19:27.152Z,19.06
2022-08-31T02:20:27.134Z,19.05
2022-08-31T02:21:27.102Z,19.07
2022-08-31T02:22:27.081Z,19.06
2022-08-31T02:23:27.095Z,19.05
2022-08-31T02:24:27.062Z,19.05
2022-08-31T02:25:27.094Z,19.06
2022-08-31T02:26:27.054Z,19.07
2022-08-31T02:27:27.023Z,19.06
2022-08-31T02:28:27.055Z,19.06
2022-08-31T02:29:27.000Z,19.05
2022-08-31T02:30:27.020Z,19.01
2022-08-31T02:31:27.023Z,18.94
2022-08-31T02:32:26.992Z,18.86
2022-08-31T02:33:27.036Z,18.74
2022-08-31T02:34:27.051Z,18.68
2022-08-31T02:35:26.980Z,18.68
2022-08-31T02:36:26.935Z,18.66
2022-08-31T02:37:26.898Z,18.64
2022-08-31T02:38:26.887Z,18.57
2022-08-31T02:39:26.891Z,18.56
2022-08-31T02:40:26.913Z,18.60
2022-08-31T02:41:26.939Z,18.59
2022-08-31T02:42:31.187Z,18.62
2022-08-31T02:43:27.930Z,18.59
2022-08-31T02:44:26.929Z,18.46
2022-08-31T02:45:26.855Z,18.39
2022-08-31T02:46:26.838Z,18.41
2022-08-31T02:47:26.782Z,18.42
2022-08-31T02:48:26.789Z,18.46
2022-08-31T02:49:26.972Z,18.46
2022-08-31T02:50:26.860Z,18.39
2022-08-31T02:51:26.732Z,18.35
2022-08-31T02:52:26.718Z,18.32
2022-08-31T02:53:26.718Z,18.32
2022-08-31T02:54:26.810Z,18.34
2022-08-31T02:55:26.689Z,18.32
2022-08-31T02:56:26.692Z,18.26
2022-08-31T02:57:26.753Z,18.32
2022-08-31T02:58:26.619Z,18.29
2022-08-31T02:59:26.629Z,18.35
2022-08-31T03:00:26.620Z,18.42
2022-08-31T03:01:26.830Z,18.44
2022-08-31T03:02:32.151Z,18.44
2022-08-31T03:03:27.607Z,18.42
2022-08-31T03:04:26.593Z,18.41
2022-08-31T03:05:26.556Z,18.39
2022-08-31T03:06:26.549Z,18.39
2022-08-31T03:07:26.528Z,18.38
2022-08-31T03:08:26.509Z,18.38
2022-08-31T03:09:26.628Z,18.38
2022-08-31T03:10:26.510Z,18.38
2022-08-31T03:11:26.501Z,18.41
2022-08-31T03:12:26.466Z,18.41
2022-08-31T03:13:26.558Z,18.44
2022-08-31T03:14:26.439Z,18.44
2022-08-31T03:15:26.508Z,18.46
2022-08-31T03:16:26.597Z,18.46
2022-08-31T03:17:26.413Z,18.44
2022-08-31T03:18:26.391Z,18.42
2022-08-31T03:19:26.411Z,18.42
2022-08-31T03:20:26.369Z,18.42
2022-08-31T03:21:26.372Z,18.31
2022-08-31T03:22:26.350Z,18.29
2022-08-31T03:23:26.317Z,18.29
2022-08-31T03:24:27.421Z,18.34
2022-08-31T03:25:26.301Z,18.29
2022-08-31T03:26:26.292Z,18.29
2022-08-31T03:27:26.270Z,18.26
2022-08-31T03:28:26.261Z,18.19
2022-08-31T03:29:26.249Z,18.23
2022-08-31T03:30:27.689Z,18.26
2022-08-31T03:31:26.298Z,18.28
2022-08-31T03:32:26.220Z,18.29
2022-08-31T03:33:26.200Z,18.29
2022-08-31T03:34:26.167Z,18.28
2022-08-31T03:35:26.179Z,18.25
2022-08-31T03:36:26.159Z,18.21
2022-08-31T03:37:26.161Z,18.26
2022-08-31T03:38:26.124Z,18.28
2022-08-31T03:39:26.107Z,18.32
2022-08-31T03:40:26.163Z,18.34
2022-08-31T03:41:26.094Z,18.31
2022-08-31T03:42:26.073Z,18.26
2022-08-31T03:43:26.072Z,18.26
2022-08-31T03:44:26.071Z,18.25
2022-08-31T03:45:26.038Z,18.26
2022-08-31T03:46:26.101Z,18.31
2022-08-31T03:47:28.272Z,18.31
2022-08-31T03:48:25.989Z,18.31
2022-08-31T03:49:26.001Z,18.31
2022-08-31T03:50:25.971Z,18.31
2022-08-31T03:51:25.978Z,18.26
2022-08-31T03:52:25.937Z,18.31
2022-08-31T03:53:26.090Z,18.34
2022-08-31T03:54:25.917Z,18.31
2022-08-31T03:55:25.897Z,18.32
2022-08-31T03:56:25.896Z,18.32
2022-08-31T03:57:25.901Z,18.32
2022-08-31T03:58:25.865Z,18.31
2022-08-31T03:59:25.847Z,18.31
2022-08-31T04:00:25.848Z,18.34
2022-08-31T04:01:25.923Z,18.32
2022-08-31T04:02:25.906Z,18.31
2022-08-31T04:03:25.799Z,18.35
2022-08-31T04:04:25.797Z,18.35
2022-08-31T04:05:25.775Z,18.36
2022-08-31T04:06:25.814Z,18.35
2022-08-31T04:07:25.745Z,18.35
2022-08-31T04:08:25.726Z,18.32
2022-08-31T04:09:25.725Z,18.32
2022-08-31T04:10:25.706Z,18.31
2022-08-31T04:11:44.944Z,18.32
2022-08-31T04:12:26.700Z,18.34
2022-08-31T04:13:29.924Z,18.31
2022-08-31T04:14:25.657Z,18.29
2022-08-31T04:15:25.637Z,18.29
2022-08-31T04:16:25.637Z,18.31
2022-08-31T04:17:25.619Z,18.32
2022-08-31T04:18:25.619Z,18.34
2022-08-31T04:19:25.585Z,18.35
2022-08-31T04:20:29.846Z,18.35
2022-08-31T04:21:25.580Z,18.36
2022-08-31T04:22:25.558Z,18.34
2022-08-31T04:23:25.548Z,18.31
2022-08-31T04:24:25.525Z,18.32
2022-08-31T04:25:25.531Z,18.32
2022-08-31T04:26:25.525Z,18.32
2022-08-31T04:27:25.490Z,18.32
2022-08-31T04:28:25.497Z,18.32
2022-08-31T04:29:25.454Z,18.28
2022-08-31T04:30:25.470Z,18.25
2022-08-31T04:31:25.490Z,18.20
2022-08-31T04:32:25.430Z,18.14
2022-08-31T04:33:25.417Z,18.11
2022-08-31T04:34:25.393Z,18.09
2022-08-31T04:35:25.374Z,18.09
2022-08-31T04:36:25.399Z,18.09
2022-08-31T04:37:25.354Z,18.09
2022-08-31T04:38:25.334Z,18.05
2022-08-31T04:39:25.324Z,18.07
2022-08-31T04:40:26.098Z,18.09
2022-08-31T04:41:25.333Z,18.11
2022-08-31T04:42:25.310Z,18.14
2022-08-31T04:43:25.291Z,18.13
2022-08-31T04:44:25.279Z,18.11
2022-08-31T04:45:25.253Z,18.11
2022-08-31T04:46:25.290Z,18.10
2022-08-31T04:47:25.238Z,18.09
2022-08-31T04:48:25.293Z,18.09
2022-08-31T04:49:25.207Z,18.09
2022-08-31T04:50:25.184Z,18.07
2022-08-31T04:51:25.222Z,18.07
2022-08-31T04:52:28.284Z,18.10
2022-08-31T04:53:25.153Z,18.13
2022-08-31T04:54:25.147Z,18.14
2022-08-31T04:55:25.128Z,18.13
2022-08-31T04:56:25.114Z,18.11
2022-08-31T04:57:25.126Z,18.10
2022-08-31T04:58:25.097Z,18.07
2022-08-31T04:59:25.063Z,18.07
2022-08-31T05:00:25.061Z,18.07
2022-08-31T05:01:25.178Z,18.10
2022-08-31T05:02:25.124Z,18.13
2022-08-31T05:03:25.026Z,18.13
2022-08-31T05:04:25.017Z,18.11
2022-08-31T05:05:25.008Z,18.11
2022-08-31T05:06:24.996Z,18.14
2022-08-31T05:07:24.981Z,18.11
2022-08-31T05:08:32.039Z,18.10
2022-08-31T05:09:27.659Z,18.10
2022-08-31T05:10:26.700Z,18.07
2022-08-31T05:11:26.646Z,18.04
2022-08-31T05:12:24.927Z,18.01
2022-08-31T05:13:24.885Z,18.01
2022-08-31T05:14:24.889Z,18.07
2022-08-31T05:15:24.871Z,18.09
2022-08-31T05:16:24.936Z,18.09
2022-08-31T05:17:24.852Z,18.07
2022-08-31T05:18:24.826Z,18.10
2022-08-31T05:19:24.831Z,18.11
2022-08-31T05:20:24.798Z,18.10
2022-08-31T05:21:24.807Z,18.14
2022-08-31T05:22:24.787Z,18.13
2022-08-31T05:23:24.760Z,18.14
2022-08-31T05:24:24.919Z,18.14
2022-08-31T05:25:24.746Z,18.10
2022-08-31T05:26:26.722Z,18.11
2022-08-31T05:27:24.742Z,18.11
2022-08-31T05:28:24.709Z,18.13
2022-08-31T05:29:24.677Z,18.11
2022-08-31T05:30:24.683Z,18.10
2022-08-31T05:31:24.736Z,18.09
2022-08-31T05:32:25.443Z,18.10
2022-08-31T05:33:24.651Z,18.11
2022-08-31T05:34:24.617Z,18.10
2022-08-31T05:35:24.627Z,18.11
2022-08-31T05:36:24.608Z,18.11
2022-08-31T05:37:24.599Z,18.14
2022-08-31T05:38:24.567Z,18.16
2022-08-31T05:39:24.559Z,18.17
2022-08-31T05:40:24.597Z,18.16
2022-08-31T05:41:24.540Z,18.20
2022-08-31T05:42:24.550Z,18.23
2022-08-31T05:43:24.522Z,18.23
2022-08-31T05:44:28.762Z,18.23
2022-08-31T05:45:25.485Z,18.23
2022-08-31T05:46:24.565Z,18.23
2022-08-31T05:47:24.482Z,18.21
2022-08-31T05:48:30.001Z,18.17
2022-08-31T05:49:27.891Z,18.20
2022-08-31T05:50:24.414Z,18.20
2022-08-31T05:51:24.419Z,18.20
2022-08-31T05:52:25.023Z,18.26
2022-08-31T05:53:24.367Z,18.28
2022-08-31T05:54:24.357Z,18.25
2022-08-31T05:55:24.359Z,18.25
2022-08-31T05:56:24.357Z,18.25
2022-08-31T05:57:26.644Z,18.25
2022-08-31T05:58:24.314Z,18.23
2022-08-31T05:59:24.311Z,18.26
2022-08-31T06:00:24.277Z,18.31
2022-08-31T06:01:24.314Z,18.35
2022-08-31T06:02:24.267Z,18.39
2022-08-31T06:03:24.242Z,18.44
2022-08-31T06:04:24.236Z,18.49
2022-08-31T06:05:24.279Z,18.50
2022-08-31T06:06:24.218Z,18.53
2022-08-31T06:07:24.223Z,18.56
2022-08-31T06:08:27.245Z,18.56
2022-08-31T06:09:24.179Z,18.54
2022-08-31T06:10:24.167Z,18.60
2022-08-31T06:11:24.144Z,18.60
2022-08-31T06:12:24.153Z,18.56
2022-08-31T06:13:24.126Z,18.57
2022-08-31T06:14:24.125Z,18.59
2022-08-31T06:15:24.095Z,18.64
2022-08-31T06:16:24.158Z,18.65
2022-08-31T06:17:24.092Z,18.68
2022-08-31T06:18:24.055Z,18.65
2022-08-31T06:19:24.061Z,18.65
2022-08-31T06:20:24.038Z,18.64
2022-08-31T06:21:24.027Z,18.65
2022-08-31T06:22:24.017Z,18.65
2022-08-31T06:23:24.019Z,18.65
2022-08-31T06:24:23.987Z,18.64
2022-08-31T06:25:23.961Z,18.68
2022-08-31T06:26:23.973Z,18.68
2022-08-31T06:27:23.965Z,18.68
2022-08-31T06:28:23.946Z,18.72
2022-08-31T06:29:23.922Z,18.71
2022-08-31T06:30:23.921Z,18.66
2022-08-31T06:31:23.919Z,18.62
2022-08-31T06:32:23.882Z,18.62
2022-08-31T06:33:23.866Z,18.64
2022-08-31T06:34:23.856Z,18.62
2022-08-31T06:35:23.847Z,18.62
2022-08-31T06:36:23.822Z,18.65
2022-08-31T06:37:23.818Z,18.68
2022-08-31T06:38:23.803Z,18.71
2022-08-31T06:39:23.779Z,18.71
2022-08-31T06:40:23.824Z,18.72
2022-08-31T06:41:23.755Z,18.75
2022-08-31T06:42:23.745Z,18.74
2022-08-31T06:43:23.735Z,18.72
2022-08-31T06:44:23.729Z,18.68
2022-08-31T06:45:23.694Z,18.69
2022-08-31T06:46:23.805Z,18.74
2022-08-31T06:47:24.316Z,18.76
2022-08-31T06:48:23.693Z,18.75
2022-08-31T06:49:23.643Z,18.75
2022-08-31T06:50:23.653Z,18.76
2022-08-31T06:51:23.636Z,18.76
2022-08-31T06:52:23.629Z,18.79
2022-08-31T06:53:23.623Z,18.83
2022-08-31T06:54:31.093Z,18.82
2022-08-31T06:55:24.586Z,18.83
2022-08-31T06:56:23.566Z,18.84
2022-08-31T06:57:23.546Z,18.84
2022-08-31T06:58:23.546Z,18.83
2022-08-31T06:59:28.241Z,18.84
2022-08-31T07:00:24.591Z,18.84
2022-08-31T07:01:35.332Z,18.84
2022-08-31T07:02:24.544Z,18.86
2022-08-31T07:03:23.491Z,18.86
2022-08-31T07:04:23.461Z,18.86
2022-08-31T07:05:24.787Z,18.86
2022-08-31T07:06:23.433Z,18.86
2022-08-31T07:07:23.412Z,18.89
2022-08-31T07:08:23.412Z,18.87
2022-08-31T07:09:23.392Z,18.89
2022-08-31T07:10:23.438Z,18.90
2022-08-31T07:11:23.374Z,18.93
2022-08-31T07:12:23.359Z,18.94
2022-08-31T07:13:23.341Z,18.96
2022-08-31T07:14:23.321Z,18.93
2022-08-31T07:15:23.329Z,18.94
2022-08-31T07:16:23.399Z,18.97
2022-08-31T07:17:23.304Z,18.99
2022-08-31T07:18:23.296Z,18.94
2022-08-31T07:19:23.273Z,18.96
2022-08-31T07:20:23.281Z,18.94
2022-08-31T07:21:23.250Z,18.96
2022-08-31T07:22:23.240Z,18.96
2022-08-31T07:23:23.241Z,18.90
2022-08-31T07:24:23.199Z,18.93
2022-08-31T07:25:23.204Z,18.89
2022-08-31T07:26:23.189Z,18.89
2022-08-31T07:27:23.152Z,18.91
2022-08-31T07:28:23.178Z,18.89
2022-08-31T07:29:23.124Z,18.93
2022-08-31T07:30:23.209Z,18.96
2022-08-31T07:31:23.179Z,18.96
2022-08-31T07:32:23.101Z,18.93
2022-08-31T07:33:23.094Z,18.91
2022-08-31T07:34:23.088Z,18.91
2022-08-31T07:35:23.062Z,18.97
2022-08-31T07:36:23.031Z,19.01
2022-08-31T07:37:23.053Z,19.01
2022-08-31T07:38:23.116Z,19.02
2022-08-31T07:39:23.017Z,19.07
2022-08-31T07:40:23.111Z,19.05
2022-08-31T07:41:23.026Z,19.05
2022-08-31T07:42:23.032Z,19.07
2022-08-31T07:43:22.959Z,19.07
2022-08-31T07:44:22.954Z,19.09
2022-08-31T07:45:24.257Z,19.10
2022-08-31T07:46:24.015Z,19.12
2022-08-31T07:47:22.998Z,19.10
2022-08-31T07:48:22.913Z,19.09
2022-08-31T07:49:22.873Z,19.10
2022-08-31T07:50:22.929Z,19.10
2022-08-31T07:51:22.842Z,19.10
2022-08-31T07:52:22.862Z,19.12
2022-08-31T07:53:22.831Z,19.13
2022-08-31T07:54:22.811Z,19.13
2022-08-31T07:55:22.789Z,19.17
2022-08-31T07:56:22.790Z,19.17
2022-08-31T07:57:22.760Z,19.17
2022-08-31T07:58:22.767Z,19.20
2022-08-31T07:59:22.754Z,19.23
2022-08-31T08:00:22.728Z,19.24
2022-08-31T08:01:22.784Z,19.28
2022-08-31T08:02:22.762Z,19.23
2022-08-31T08:03:22.849Z,19.23
2022-08-31T08:04:22.681Z,19.17
2022-08-31T08:05:22.672Z,19.17
2022-08-31T08:06:22.711Z,19.20
2022-08-31T08:07:22.682Z,19.24
2022-08-31T08:08:22.654Z,19.28
2022-08-31T08:09:24.432Z,19.32
2022-08-31T08:10:22.611Z,19.39
2022-08-31T08:11:22.899Z,19.43
2022-08-31T08:12:22.690Z,19.40
2022-08-31T08:13:22.733Z,19.34
2022-08-31T08:14:22.584Z,19.31
2022-08-31T08:15:22.580Z,19.40
2022-08-31T08:16:22.589Z,19.49
2022-08-31T08:17:22.499Z,19.57
2022-08-31T08:18:22.518Z,19.62
2022-08-31T08:19:22.488Z,19.72
2022-08-31T08:20:37.333Z,19.82
2022-08-31T08:21:23.497Z,19.85
2022-08-31T08:22:48.521Z,19.85
2022-08-31T08:23:28.440Z,19.87
2022-08-31T08:24:23.419Z,19.94
2022-08-31T08:25:25.822Z,20.00
2022-08-31T08:26:22.448Z,20.01
2022-08-31T08:27:22.411Z,20.07
2022-08-31T08:28:38.637Z,20.15
2022-08-31T08:29:23.406Z,20.20
2022-08-31T08:30:22.340Z,20.30
2022-08-31T08:31:22.393Z,20.33
2022-08-31T08:32:22.319Z,20.37
2022-08-31T08:33:22.887Z,20.40
2022-08-31T08:34:22.301Z,20.30
2022-08-31T08:35:23.321Z,20.23
2022-08-31T08:36:22.285Z,20.25
2022-08-31T08:37:40.951Z,20.26
2022-08-31T08:38:23.260Z,20.23
2022-08-31T08:39:22.242Z,20.23
2022-08-31T08:40:22.242Z,20.26
2022-08-31T08:41:22.229Z,20.26
2022-08-31T08:42:22.191Z,20.26
2022-08-31T08:43:22.212Z,20.30
2022-08-31T08:44:22.182Z,20.38
2022-08-31T08:45:22.154Z,20.46
2022-08-31T08:46:34.396Z,20.54
2022-08-31T08:47:23.903Z,20.61
2022-08-31T08:48:22.132Z,20.69
2022-08-31T08:49:22.122Z,20.76
2022-08-31T08:50:22.086Z,20.88
2022-08-31T08:51:22.067Z,20.94
2022-08-31T08:52:22.097Z,21.05
2022-08-31T08:53:22.067Z,21.12
2022-08-31T08:54:22.026Z,21.18
2022-08-31T08:55:22.029Z,21.19
2022-08-31T08:56:32.780Z,21.22
2022-08-31T08:57:23.001Z,21.24
2022-08-31T08:58:22.002Z,21.33
2022-08-31T08:59:21.966Z,21.36
2022-08-31T09:00:21.983Z,21.43
2022-08-31T09:01:22.005Z,21.52
2022-08-31T09:02:22.102Z,21.56
2022-08-31T09:03:21.925Z,21.64
2022-08-31T09:04:21.909Z,21.70
2022-08-31T09:05:21.888Z,21.73
2022-08-31T09:06:21.883Z,21.68
2022-08-31T09:07:21.880Z,21.73
2022-08-31T09:08:21.890Z,21.71
2022-08-31T09:09:21.850Z,21.74
2022-08-31T09:10:21.824Z,21.79
2022-08-31T09:11:21.824Z,21.83
2022-08-31T09:12:21.810Z,21.83
2022-08-31T09:13:21.824Z,21.89
2022-08-31T09:14:21.799Z,21.94
2022-08-31T09:15:21.766Z,21.91
2022-08-31T09:16:21.831Z,21.90
2022-08-31T09:17:21.758Z,21.81
2022-08-31T09:18:21.741Z,21.75
2022-08-31T09:19:21.720Z,21.70
2022-08-31T09:20:21.697Z,21.64
2022-08-31T09:21:21.692Z,21.63
2022-08-31T09:22:21.678Z,21.61
2022-08-31T09:23:21.704Z,21.64
2022-08-31T09:24:21.659Z,21.61
2022-08-31T09:25:21.638Z,21.56
2022-08-31T09:26:21.617Z,21.51
2022-08-31T09:27:21.620Z,21.48
2022-08-31T09:28:21.623Z,21.45
2022-08-31T09:29:21.599Z,21.46
2022-08-31T09:30:21.570Z,21.45
2022-08-31T09:31:21.667Z,21.48
2022-08-31T09:32:21.555Z,21.43
2022-08-31T09:33:21.584Z,21.43
2022-08-31T09:34:21.515Z,21.40
2022-08-31T09:35:21.526Z,21.42
2022-08-31T09:36:21.527Z,21.40
2022-08-31T09:37:21.499Z,21.36
2022-08-31T09:38:21.499Z,21.36
2022-08-31T09:39:21.469Z,21.38
2022-08-31T09:40:23.719Z,21.42
2022-08-31T09:41:21.436Z,21.46
2022-08-31T09:42:21.451Z,21.53
2022-08-31T09:43:21.519Z,21.58
2022-08-31T09:44:21.433Z,21.63
2022-08-31T09:45:21.421Z,21.73
2022-08-31T09:46:21.482Z,21.77
2022-08-31T09:47:21.368Z,21.82
2022-08-31T09:48:21.422Z,21.89
2022-08-31T09:49:21.355Z,21.91
2022-08-31T09:50:21.318Z,22.01
2022-08-31T09:51:21.315Z,22.05
2022-08-31T09:52:21.286Z,22.06
2022-08-31T09:53:21.347Z,22.08
2022-08-31T09:54:21.286Z,22.14
2022-08-31T09:55:21.269Z,22.14
2022-08-31T09:56:21.305Z,22.15
2022-08-31T09:57:21.249Z,22.15
2022-08-31T09:58:21.258Z,22.15
2022-08-31T09:59:21.214Z,22.21
2022-08-31T10:00:21.227Z,22.23
2022-08-31T10:01:21.295Z,22.27
2022-08-31T10:02:21.216Z,22.35
2022-08-31T10:03:21.536Z,22.42
2022-08-31T10:04:21.147Z,22.49
2022-08-31T10:05:21.193Z,22.52
2022-08-31T10:06:21.124Z,22.56
2022-08-31T10:07:21.102Z,22.56
2022-08-31T10:08:21.129Z,22.54
2022-08-31T10:09:21.074Z,22.56
2022-08-31T10:10:30.989Z,22.57
2022-08-31T10:11:22.078Z,22.59
2022-08-31T10:12:21.034Z,22.66
2022-08-31T10:13:21.129Z,22.74
2022-08-31T10:14:21.023Z,22.81
2022-08-31T10:15:21.019Z,22.85
2022-08-31T10:16:21.063Z,22.93
2022-08-31T10:17:20.983Z,22.99
2022-08-31T10:18:20.990Z,23.04
2022-08-31T10:19:20.964Z,23.12
2022-08-31T10:20:20.958Z,23.16
2022-08-31T10:21:20.937Z,23.21
2022-08-31T10:22:20.951Z,23.31
2022-08-31T10:23:21.139Z,23.35
2022-08-31T10:24:20.983Z,23.39
2022-08-31T10:25:20.873Z,23.41
2022-08-31T10:26:20.907Z,23.44
2022-08-31T10:27:20.867Z,23.44
2022-08-31T10:28:20.847Z,23.42
2022-08-31T10:29:23.273Z,23.42
2022-08-31T10:30:20.815Z,23.41
2022-08-31T10:31:20.821Z,23.39
2022-08-31T10:32:20.796Z,23.39
2022-08-31T10:33:21.015Z,23.42
2022-08-31T10:34:20.795Z,23.45
2022-08-31T10:35:20.764Z,23.45
2022-08-31T10:36:20.747Z,23.45
2022-08-31T10:37:20.748Z,23.42
2022-08-31T10:38:20.717Z,23.41
2022-08-31T10:39:20.733Z,23.42
2022-08-31T10:40:20.752Z,23.39
2022-08-31T10:41:20.690Z,23.38
2022-08-31T10:42:20.673Z,23.37
2022-08-31T10:43:20.794Z,23.29
2022-08-31T10:44:20.656Z,23.26
2022-08-31T10:45:20.731Z,23.31
2022-08-31T10:46:20.722Z,23.29
2022-08-31T10:47:32.544Z,23.37
2022-08-31T10:48:21.601Z,23.41
2022-08-31T10:49:20.611Z,23.44
2022-08-31T10:50:20.577Z,23.44
2022-08-31T10:51:20.568Z,23.47
2022-08-31T10:52:20.539Z,23.49
2022-08-31T10:53:20.777Z,23.50
2022-08-31T10:54:20.547Z,23.53
2022-08-31T10:55:20.642Z,23.54
2022-08-31T10:56:20.497Z,23.57
2022-08-31T10:57:21.660Z,23.54
2022-08-31T10:58:20.478Z,23.59
2022-08-31T10:59:20.463Z,23.63
2022-08-31T11:00:20.454Z,23.68
2022-08-31T11:01:20.473Z,23.69
2022-08-31T11:02:20.419Z,23.74
2022-08-31T11:03:20.700Z,23.78
2022-08-31T11:04:20.474Z,23.78
2022-08-31T11:05:20.394Z,23.82
2022-08-31T11:06:20.401Z,23.84
2022-08-31T11:07:20.365Z,23.87
2022-08-31T11:08:20.341Z,23.87
2022-08-31T11:09:27.422Z,23.87
2022-08-31T11:10:20.303Z,23.90
2022-08-31T11:11:22.976Z,23.86
2022-08-31T11:12:20.286Z,23.78
2022-08-31T11:13:20.418Z,23.77
2022-08-31T11:14:20.256Z,23.78
2022-08-31T11:15:20.246Z,23.75
2022-08-31T11:16:20.337Z,23.77
2022-08-31T11:17:20.206Z,23.79
2022-08-31T11:18:20.219Z,23.79
2022-08-31T11:19:20.203Z,23.81
2022-08-31T11:20:20.203Z,23.82
2022-08-31T11:21:20.198Z,23.87
2022-08-31T11:22:20.148Z,23.90
2022-08-31T11:23:20.465Z,23.90
2022-08-31T11:24:20.146Z,23.90
2022-08-31T11:25:20.120Z,23.94
2022-08-31T11:26:20.103Z,23.97
2022-08-31T11:27:20.097Z,23.96
2022-08-31T11:28:20.089Z,23.97
2022-08-31T11:29:20.056Z,23.97
2022-08-31T11:30:20.041Z,23.97
2022-08-31T11:31:20.067Z,24.00
2022-08-31T11:32:20.033Z,24.06
2022-08-31T11:33:20.315Z,24.08
2022-08-31T11:34:20.018Z,24.09
2022-08-31T11:35:19.988Z,24.11
2022-08-31T11:36:19.987Z,24.14
2022-08-31T11:37:19.967Z,24.14
2022-08-31T11:38:19.947Z,24.14
2022-08-31T11:39:19.962Z,24.15
2022-08-31T11:40:19.954Z,24.14
2022-08-31T11:41:19.918Z,24.15
2022-08-31T11:42:19.899Z,24.11
2022-08-31T11:43:19.919Z,24.11
2022-08-31T11:44:19.871Z,24.04
2022-08-31T11:45:19.870Z,23.97
2022-08-31T11:46:20.879Z,23.92
2022-08-31T11:47:19.838Z,23.89
2022-08-31T11:48:19.806Z,23.93
2022-08-31T11:49:19.817Z,23.96
2022-08-31T11:50:19.781Z,23.97
2022-08-31T11:51:19.773Z,23.99
2022-08-31T11:52:19.763Z,24.04
2022-08-31T11:53:20.042Z,24.06
2022-08-31T11:54:19.738Z,24.09
2022-08-31T11:55:19.738Z,24.15
2022-08-31T11:56:19.702Z,24.18
2022-08-31T11:57:19.687Z,24.16
2022-08-31T11:58:20.949Z,24.19
2022-08-31T11:59:19.700Z,24.23
2022-08-31T12:00:19.669Z,24.23
2022-08-31T12:01:19.653Z,24.26
2022-08-31T12:02:19.867Z,24.26
2022-08-31T12:03:19.769Z,24.33
2022-08-31T12:04:23.801Z,24.39
2022-08-31T12:05:19.635Z,24.49
2022-08-31T12:06:19.585Z,24.55
2022-08-31T12:07:19.564Z,24.64
2022-08-31T12:08:19.554Z,24.67
2022-08-31T12:09:19.558Z,24.68
2022-08-31T12:10:21.229Z,24.74
2022-08-31T12:11:19.512Z,24.79
2022-08-31T12:12:19.506Z,24.82
2022-08-31T12:13:19.981Z,24.89
2022-08-31T12:14:19.485Z,24.93
2022-08-31T12:15:19.482Z,24.99
2022-08-31T12:16:19.501Z,25.05
2022-08-31T12:17:19.451Z,25.08
2022-08-31T12:18:19.415Z,25.05
2022-08-31T12:19:19.424Z,25.04
2022-08-31T12:20:19.391Z,25.01
2022-08-31T12:21:19.408Z,24.98
2022-08-31T12:22:19.384Z,24.93
2022-08-31T12:23:31.208Z,24.84
2022-08-31T12:24:20.374Z,24.75
2022-08-31T12:25:19.349Z,24.70
2022-08-31T12:26:19.324Z,24.74
2022-08-31T12:27:19.324Z,24.74
2022-08-31T12:28:19.283Z,24.68
2022-08-31T12:29:20.303Z,24.61
2022-08-31T12:30:19.290Z,24.56
2022-08-31T12:31:19.351Z,24.53
2022-08-31T12:32:19.254Z,24.49
2022-08-31T12:33:19.444Z,24.52
2022-08-31T12:34:19.252Z,24.51
2022-08-31T12:35:19.215Z,24.51
2022-08-31T12:36:19.206Z,24.46
2022-08-31T12:37:19.182Z,24.44
2022-08-31T12:38:19.173Z,24.37
2022-08-31T12:39:19.173Z,24.34
2022-08-31T12:40:19.190Z,24.27
2022-08-31T12:41:23.331Z,24.26
2022-08-31T12:42:20.126Z,24.21
2022-08-31T12:43:19.255Z,24.19
2022-08-31T12:44:19.116Z,24.15
2022-08-31T12:45:19.081Z,24.14
2022-08-31T12:46:19.115Z,24.12
2022-08-31T12:47:22.316Z,24.11
2022-08-31T12:48:20.041Z,24.08
2022-08-31T12:49:19.046Z,24.06
2022-08-31T12:50:19.037Z,24.06
2022-08-31T12:51:19.002Z,24.05
2022-08-31T12:52:18.983Z,24.04